Time;durP1;ratioP1;P1;durP2;ratioP2;P2;SDS_P1;SDS_P2;PMS_P1;PMS_P2;Temp;Humidity;BMP_temperature;BMP_pressure;BME280_temperature;BME280_humidity;BME280_pressure;Samples;Min_cycle;Max_cycle;Signal;HPM_P1;HPM_P2
2022/08/30 00:02:59;;;;;;;15.68;9.95;;;20.80;90.40;;;;;;5097395;28;20443;-84
2022/08/30 00:05:26;;;;;;;16.63;10.40;;;20.80;90.40;;;;;;5091262;28;20020;-82
2022/08/30 00:07:52;;;;;;;18.83;11.05;;;20.80;90.50;;;;;;5091058;28;20024;-84
2022/08/30 00:10:18;;;;;;;19.60;11.75;;;20.80;90.50;;;;;;5091128;28;20039;-84
2022/08/30 00:12:44;;;;;;;21.02;11.45;;;20.80;90.50;;;;;;5091314;28;20031;-84
2022/08/30 00:15:12;;;;;;;24.92;10.32;;;20.80;90.60;;;;;;5092295;28;20040;-83
2022/08/30 00:17:38;;;;;;;18.45;10.50;;;20.80;90.60;;;;;;5092432;28;20024;-83
2022/08/30 00:20:07;;;;;;;22.55;11.18;;;20.90;90.60;;;;;;5101884;28;20024;-83
2022/08/30 00:22:33;;;;;;;18.85;10.82;;;20.90;90.50;;;;;;5094498;28;20031;-83
2022/08/30 00:24:59;;;;;;;19.20;11.48;;;20.90;90.50;;;;;;5093433;28;20059;-83
2022/08/30 00:27:29;;;;;;;16.92;10.60;;;21.00;90.50;;;;;;5077176;28;20065;-84
2022/08/30 00:29:56;;;;;;;19.23;10.90;;;20.90;90.40;;;;;;5091128;28;20024;-84
2022/08/30 00:32:22;;;;;;;17.13;10.70;;;20.90;90.40;;;;;;5073719;28;20032;-83
2022/08/30 00:34:50;;;;;;;18.73;11.07;;;20.90;90.40;;;;;;5088050;28;20036;-84
2022/08/30 00:37:17;;;;;;;20.88;10.88;;;20.90;90.40;;;;;;5083712;28;20044;-85
2022/08/30 00:39:44;;;;;;;20.25;11.52;;;20.90;90.40;;;;;;5073052;28;20028;-84
2022/08/30 00:42:12;;;;;;;18.25;10.55;;;20.90;90.30;;;;;;5092890;28;20144;-83
2022/08/30 00:44:38;;;;;;;19.50;11.63;;;20.90;90.40;;;;;;5097716;28;20028;-83
2022/08/30 00:47:04;;;;;;;20.77;11.75;;;20.90;90.40;;;;;;5103861;28;20032;-83
2022/08/30 00:49:32;;;;;;;16.33;10.20;;;20.80;90.40;;;;;;5095547;28;20017;-83
2022/08/30 00:51:58;;;;;;;20.65;11.25;;;20.80;90.60;;;;;;5095943;28;20020;-83
2022/08/30 00:54:25;;;;;;;18.25;11.13;;;20.80;90.60;;;;;;5096093;28;20477;-84
2022/08/30 00:56:51;;;;;;;20.48;10.70;;;20.70;90.70;;;;;;5095759;28;20392;-83
2022/08/30 00:59:20;;;;;;;18.23;10.25;;;20.70;90.70;;;;;;5095602;28;20016;-83
2022/08/30 01:01:46;;;;;;;18.90;11.35;;;20.80;90.70;;;;;;5097450;28;20036;-83
2022/08/30 01:04:13;;;;;;;22.83;11.13;;;20.70;90.60;;;;;;5097470;28;20016;-83
2022/08/30 01:06:40;;;;;;;21.77;12.23;;;20.70;90.60;;;;;;5095779;28;20028;-83
2022/08/30 01:09:07;;;;;;;17.80;11.45;;;20.70;90.70;;;;;;5077228;28;20016;-83
2022/08/30 01:11:36;;;;;;;24.40;11.10;;;20.70;90.80;;;;;;5095711;28;20085;-85
2022/08/30 01:14:04;;;;;;;15.52;10.13;;;20.70;90.80;;;;;;5076532;28;20394;-84
2022/08/30 01:16:32;;;;;;;16.95;10.35;;;20.70;90.90;;;;;;5095152;28;20093;-83
2022/08/30 01:18:59;;;;;;;14.35;9.80;;;20.70;90.90;;;;;;5095316;28;20024;-83
2022/08/30 01:21:48;;;;;;;19.02;10.68;;;20.70;90.90;;;;;;5095585;28;20020;-84
2022/08/30 01:24:16;;;;;;;21.55;10.88;;;20.70;90.80;;;;;;5095122;28;20048;-84
2022/08/30 01:26:42;;;;;;;;;;;20.70;90.90;;;;;;5095549;28;20024;-83
2022/08/30 01:29:12;;;;;;;15.45;11.30;;;20.70;90.60;;;;;;5095062;28;19907;-84
2022/08/30 01:31:38;;;;;;;18.65;11.52;;;20.60;90.90;;;;;;5094219;28;20069;-83
2022/08/30 01:34:06;;;;;;;21.77;12.15;;;20.70;91.00;;;;;;5095135;28;20027;-82
2022/08/30 01:36:34;;;;;;;30.95;12.75;;;20.70;91.10;;;;;;5095098;28;20032;-85
2022/08/30 01:39:00;;;;;;;18.88;11.50;;;20.70;91.10;;;;;;5094947;28;20031;-84
2022/08/30 01:41:30;;;;;;;18.10;11.27;;;20.70;91.10;;;;;;5094971;28;20033;-83
2022/08/30 01:43:59;;;;;;;18.48;10.98;;;20.60;91.10;;;;;;5063821;28;20837;-82
2022/08/30 01:46:28;;;;;;;14.85;11.02;;;20.60;91.30;;;;;;5088687;28;20031;-83
2022/08/30 01:48:56;;;;;;;17.55;10.13;;;20.60;91.30;;;;;;5094060;28;20439;-83
2022/08/30 01:51:25;;;;;;;18.70;11.98;;;20.60;91.30;;;;;;5095060;28;20042;-84
2022/08/30 01:53:51;;;;;;;20.85;12.00;;;20.60;91.30;;;;;;5089464;28;20017;-84
2022/08/30 01:56:18;;;;;;;18.33;10.88;;;20.60;91.30;;;;;;5102287;28;20097;-85
2022/08/30 01:58:44;;;;;;;18.10;10.98;;;20.60;91.30;;;;;;5086175;28;20385;-85
2022/08/30 02:01:13;;;;;;;16.42;11.07;;;20.60;91.40;;;;;;5093287;28;20016;-86
2022/08/30 02:03:42;;;;;;;18.00;10.70;;;20.60;91.30;;;;;;5081548;28;20027;-87
2022/08/30 02:06:11;;;;;;;17.17;11.40;;;20.60;91.60;;;;;;5115896;28;20391;-87
2022/08/30 02:08:39;;;;;;;19.10;12.23;;;20.60;91.30;;;;;;5096978;28;20018;-86
2022/08/30 02:11:05;;;;;;;21.70;11.63;;;20.50;91.40;;;;;;5095073;28;20102;-86
2022/08/30 02:13:31;;;;;;;21.03;11.67;;;20.40;91.60;;;;;;5062557;28;20016;-86
2022/08/30 02:15:58;;;;;;;25.90;11.90;;;20.30;91.70;;;;;;5094433;28;20040;-87
2022/08/30 02:18:24;;;;;;;15.15;11.75;;;20.20;91.90;;;;;;5076111;28;20065;-87
2022/08/30 02:20:50;;;;;;;21.90;12.55;;;20.20;92.00;;;;;;5093850;28;20024;-87
2022/08/30 02:23:17;;;;;;;19.75;12.38;;;20.20;92.10;;;;;;5092798;28;20111;-87
2022/08/30 02:25:43;;;;;;;21.52;10.75;;;20.20;92.30;;;;;;5074644;28;20090;-86
2022/08/30 02:28:10;;;;;;;21.00;12.00;;;20.10;92.30;;;;;;5089472;28;20025;-85
2022/08/30 02:30:36;;;;;;;21.25;12.32;;;20.10;92.30;;;;;;5097190;28;20099;-88
2022/08/30 02:33:02;;;;;;;22.95;12.15;;;20.00;92.40;;;;;;5096540;28;20027;-85
2022/08/30 02:35:27;;;;;;;21.38;11.48;;;20.00;92.50;;;;;;5105401;28;20012;-86
2022/08/30 02:37:53;;;;;;;21.17;12.82;;;20.00;92.60;;;;;;5105735;28;20034;-87
2022/08/30 02:40:21;;;;;;;18.42;12.02;;;19.90;92.70;;;;;;5094453;28;20027;-87
2022/08/30 02:42:47;;;;;;;19.95;11.73;;;19.90;92.80;;;;;;5096421;28;20049;-86
2022/08/30 02:45:14;;;;;;;17.37;11.93;;;19.90;92.90;;;;;;5105518;28;20069;-86
2022/08/30 02:47:40;;;;;;;20.17;11.52;;;19.80;93.00;;;;;;5095129;28;20265;-86
2022/08/30 02:50:09;;;;;;;18.35;12.05;;;19.80;93.10;;;;;;5094019;28;20016;-86
2022/08/30 02:52:36;;;;;;;18.35;12.52;;;19.80;93.20;;;;;;5074755;28;20081;-86
2022/08/30 02:55:04;;;;;;;21.17;12.32;;;19.80;93.20;;;;;;5075815;28;20024;-86
2022/08/30 02:57:29;;;;;;;26.33;12.52;;;19.80;93.20;;;;;;5093759;28;20032;-88
2022/08/30 02:59:55;;;;;;;19.95;12.23;;;19.80;93.30;;;;;;5094093;28;20027;-86
2022/08/30 03:02:21;;;;;;;19.60;13.13;;;19.80;93.30;;;;;;5094716;28;20020;-85
2022/08/30 03:04:48;;;;;;;18.77;11.68;;;19.70;93.40;;;;;;5095057;28;20066;-84
2022/08/30 03:07:15;;;;;;;21.37;12.20;;;19.80;93.50;;;;;;5093715;28;20095;-85
2022/08/30 03:09:41;;;;;;;18.52;11.98;;;19.80;93.50;;;;;;5093030;28;20020;-85
2022/08/30 03:12:08;;;;;;;19.02;11.68;;;19.80;93.40;;;;;;5093394;28;20074;-83
2022/08/30 03:14:35;;;;;;;21.02;12.60;;;19.80;93.40;;;;;;5093168;28;20020;-86
2022/08/30 03:17:02;;;;;;;;;;;19.90;93.40;;;;;;5075383;28;20097;-84
2022/08/30 03:19:27;;;;;;;28.13;13.02;;;19.90;93.10;;;;;;5092688;28;19908;-83
2022/08/30 03:21:53;;;;;;;19.75;12.98;;;19.90;93.30;;;;;;5083309;28;20084;-85
2022/08/30 03:24:19;;;;;;;20.67;12.20;;;19.90;93.30;;;;;;5078226;28;20083;-86
2022/08/30 03:26:45;;;;;;;20.75;12.13;;;19.90;93.30;;;;;;5100030;28;20026;-86
2022/08/30 03:29:11;;;;;;;21.23;12.52;;;20.00;93.30;;;;;;5099628;28;20043;-84
2022/08/30 03:31:37;;;;;;;22.52;12.88;;;20.00;93.30;;;;;;5113256;28;20023;-85
2022/08/30 03:34:04;;;;;;;27.15;12.57;;;20.10;93.20;;;;;;5110944;28;20024;-85
2022/08/30 03:36:31;;;;;;;20.45;13.13;;;20.10;93.10;;;;;;5096361;28;20039;-86
2022/08/30 03:38:57;;;;;;;20.02;12.57;;;20.20;92.90;;;;;;5094034;28;20027;-85
2022/08/30 03:41:24;;;;;;;23.98;13.65;;;20.40;92.60;;;;;;5079974;28;20028;-84
2022/08/30 03:43:50;;;;;;;21.65;12.50;;;20.50;92.40;;;;;;5092484;28;20028;-85
2022/08/30 03:46:15;;;;;;;22.38;12.95;;;20.60;92.10;;;;;;5092840;28;20499;-85
2022/08/30 03:48:42;;;;;;;19.58;12.38;;;20.70;91.90;;;;;;5092360;28;20115;-85
2022/08/30 03:51:08;;;;;;;22.52;11.77;;;20.70;91.90;;;;;;5092109;28;20380;-85
2022/08/30 03:53:34;;;;;;;22.38;13.75;;;20.70;91.60;;;;;;5091959;28;20032;-85
2022/08/30 03:56:00;;;;;;;25.83;13.52;;;20.70;91.50;;;;;;5077005;28;20035;-84
2022/08/30 03:58:26;;;;;;;22.10;13.02;;;20.70;91.60;;;;;;5078845;28;20482;-86
2022/08/30 04:00:52;;;;;;;17.52;12.48;;;20.80;91.40;;;;;;5079342;28;20028;-86
2022/08/30 04:03:19;;;;;;;18.75;12.63;;;20.70;91.40;;;;;;5093989;28;20045;-85
2022/08/30 04:05:45;;;;;;;;;;;20.80;91.40;;;;;;5090389;28;20020;-86
2022/08/30 04:08:11;;;;;;;20.75;13.25;;;20.90;91.20;;;;;;5083749;28;20307;-85
2022/08/30 04:10:36;;;;;;;23.20;14.05;;;20.80;91.30;;;;;;5095899;28;20563;-85
2022/08/30 04:13:04;;;;;;;24.73;13.95;;;20.80;91.20;;;;;;5093720;28;20040;-86
2022/08/30 04:15:30;;;;;;;;;;;20.80;91.30;;;;;;5074963;28;20055;-84
2022/08/30 04:17:56;;;;;;;20.95;13.35;;;20.90;91.10;;;;;;5091969;28;19904;-85
2022/08/30 04:20:22;;;;;;;25.98;14.02;;;20.90;91.00;;;;;;5092585;28;20095;-83
2022/08/30 04:22:48;;;;;;;23.13;14.40;;;20.90;90.90;;;;;;5092301;28;20028;-82
2022/08/30 04:25:14;;;;;;;20.17;13.87;;;20.90;91.00;;;;;;5097468;28;20089;-83
2022/08/30 04:27:40;;;;;;;24.25;14.15;;;20.90;91.10;;;;;;5100138;28;20020;-83
2022/08/30 04:30:06;;;;;;;18.70;14.40;;;21.10;90.80;;;;;;5092171;28;20442;-83
2022/08/30 04:32:35;;;;;;;21.25;14.27;;;21.20;90.50;;;;;;5073965;28;20115;-84
2022/08/30 04:35:00;;;;;;;20.02;14.23;;;21.40;90.30;;;;;;5073845;28;20027;-84
2022/08/30 04:37:26;;;;;;;22.83;14.68;;;21.80;89.40;;;;;;5092112;28;20028;-85
2022/08/30 04:40:02;;;;;;;20.67;14.60;;;22.40;87.60;;;;;;5090948;28;20145;-83
2022/08/30 04:42:30;;;;;;;24.00;15.00;;;22.80;85.20;;;;;;5092394;28;20024;-85
2022/08/30 04:44:57;;;;;;;20.33;13.23;;;23.40;83.10;;;;;;5092206;28;20090;-83
2022/08/30 04:47:23;;;;;;;22.58;14.70;;;23.80;81.10;;;;;;5075252;28;20042;-83
2022/08/30 04:49:49;;;;;;;26.38;15.90;;;24.30;79.00;;;;;;5078387;28;20024;-88
2022/08/30 04:52:15;;;;;;;23.38;13.80;;;24.80;77.20;;;;;;5084588;28;20016;-85
2022/08/30 04:54:41;;;;;;;22.48;14.73;;;25.30;76.50;;;;;;5116763;28;20050;-88
2022/08/30 04:57:07;;;;;;;20.90;14.60;;;25.40;74.60;;;;;;5111380;28;20156;-85
2022/08/30 04:59:32;;;;;;;25.05;15.13;;;25.90;72.60;;;;;;5104590;28;20138;-88
2022/08/30 05:01:59;;;;;;;19.63;14.98;;;;;;;;;;5097470;28;20481;-83
2022/08/30 05:04:25;;;;;;;21.13;15.30;;;;;;;;;;5094683;28;20475;-83
2022/08/30 05:06:51;;;;;;;21.35;15.40;;;26.30;71.10;;;;;;5103486;28;20025;-84
2022/08/30 05:09:18;;;;;;;22.03;15.50;;;26.60;69.40;;;;;;5109525;28;20111;-83
2022/08/30 05:11:45;;;;;;;27.02;14.88;;;26.40;69.00;;;;;;5074526;28;20668;-85
2022/08/30 05:14:11;;;;;;;;;;;26.50;69.20;;;;;;5091465;28;20377;-85
2022/08/30 05:16:36;;;;;;;25.70;14.73;;;26.90;69.80;;;;;;5091959;28;19916;-86
2022/08/30 05:19:02;;;;;;;20.90;14.93;;;27.10;67.40;;;;;;5092114;28;20025;-84
2022/08/30 05:21:28;;;;;;;21.10;14.00;;;27.10;66.60;;;;;;5088047;28;20025;-83
2022/08/30 05:23:57;;;;;;;22.73;13.80;;;27.50;66.20;;;;;;5070824;28;20388;-85
2022/08/30 05:26:25;;;;;;;22.83;14.60;;;28.00;64.60;;;;;;5063791;28;20035;-86
2022/08/30 05:28:52;;;;;;;24.40;14.10;;;27.90;64.10;;;;;;5070279;28;20020;-86
2022/08/30 05:31:22;;;;;;;23.08;15.40;;;28.10;63.70;;;;;;5066723;28;20028;-83
2022/08/30 05:33:49;;;;;;;21.70;14.10;;;;;;;;;;5092204;28;20034;-85
2022/08/30 05:36:17;;;;;;;23.75;15.40;;;29.30;60.20;;;;;;5078225;28;20361;-84
2022/08/30 05:38:43;;;;;;;26.88;15.52;;;29.30;60.20;;;;;;5076436;28;20020;-83
2022/08/30 05:41:09;;;;;;;20.92;14.20;;;29.20;60.10;;;;;;5091718;28;20016;-85
2022/08/30 05:43:35;;;;;;;20.73;15.60;;;28.90;60.60;;;;;;5090981;28;20020;-84
2022/08/30 05:46:07;;;;;;;28.27;15.13;;;29.00;60.70;;;;;;5096343;28;20024;-84
2022/08/30 05:48:34;;;;;;;21.60;15.40;;;29.80;59.50;;;;;;5083136;28;20020;-84
2022/08/30 05:51:07;;;;;;;23.27;15.93;;;30.40;57.70;;;;;;5088329;28;20067;-86
2022/08/30 05:53:34;;;;;;;22.30;15.43;;;31.00;56.50;;;;;;5076649;28;20024;-86
2022/08/30 05:56:01;;;;;;;22.05;15.23;;;;;;;;;;5092305;28;20078;-85
2022/08/30 05:58:28;;;;;;;20.95;15.40;;;;;;;;;;5095357;28;20380;-86
2022/08/30 06:00:54;;;;;;;19.95;15.23;;;;;;;;;;5090474;28;20025;-86
2022/08/30 06:03:20;;;;;;;21.27;16.27;;;;;;;;;;5070895;28;20031;-84
2022/08/30 06:05:46;;;;;;;27.63;16.57;;;31.20;55.10;;;;;;5076472;28;20257;-85
2022/08/30 06:08:12;;;;;;;26.33;15.07;;;33.40;51.70;;;;;;5085712;28;20268;-85
2022/08/30 06:10:38;;;;;;;19.90;15.97;;;33.80;50.30;;;;;;5096899;28;20031;-85
2022/08/30 06:13:04;;;;;;;25.13;16.57;;;34.70;48.90;;;;;;5098616;28;20027;-85
2022/08/30 06:15:29;;;;;;;25.10;14.23;;;35.30;47.60;;;;;;5104693;28;20048;-85
2022/08/30 06:17:58;;;;;;;23.73;15.60;;;35.90;46.30;;;;;;5104829;28;20024;-84
2022/08/30 06:20:24;;;;;;;17.63;14.18;;;36.40;45.40;;;;;;5076588;28;20296;-85
2022/08/30 06:22:50;;;;;;;17.90;13.43;;;36.80;44.30;;;;;;5076076;28;20032;-84
2022/08/30 06:25:16;;;;;;;17.47;14.53;;;36.80;44.50;;;;;;5094723;28;20268;-85
2022/08/30 06:27:42;;;;;;;20.00;14.45;;;;;;;;;;5076611;28;20162;-85
2022/08/30 06:30:09;;;;;;;18.10;13.65;;;36.90;43.80;;;;;;5078193;28;20499;-84
2022/08/30 06:32:36;;;;;;;24.02;14.70;;;37.20;44.00;;;;;;5069154;28;20041;-83
2022/08/30 06:35:04;;;;;;;18.58;13.38;;;37.40;43.20;;;;;;5093610;28;20016;-83
2022/08/30 06:37:31;;;;;;;18.27;13.50;;;;;;;;;;5099960;28;20028;-84
2022/08/30 06:39:58;;;;;;;24.88;15.20;;;;;;;;;;5098245;28;20024;-85
2022/08/30 06:42:30;;;;;;;18.60;13.95;;;38.10;42.50;;;;;;5085735;28;20130;-83
2022/08/30 06:45:03;;;;;;;21.02;14.05;;;38.00;41.90;;;;;;5111893;28;20023;-84
2022/08/30 06:47:29;;;;;;;17.65;13.38;;;38.30;41.10;;;;;;5093819;28;20008;-84
2022/08/30 06:49:56;;;;;;;22.38;14.02;;;38.80;40.70;;;;;;5076642;28;20069;-88
2022/08/30 06:52:21;;;;;;;22.67;13.27;;;38.70;39.90;;;;;;5095809;28;20027;-87
2022/08/30 06:54:49;;;;;;;18.08;12.63;;;38.40;40.20;;;;;;5075538;28;20036;-86
2022/08/30 06:57:15;;;;;;;25.90;14.00;;;38.50;40.70;;;;;;5093714;28;20085;-85
2022/08/30 06:59:41;;;;;;;22.75;12.68;;;38.50;40.10;;;;;;5093897;28;20080;-86
2022/08/30 07:02:07;;;;;;;26.75;13.55;;;37.90;40.70;;;;;;5093874;28;20080;-86
2022/08/30 07:04:33;;;;;;;20.92;13.65;;;38.10;40.90;;;;;;5094301;28;20020;-87
2022/08/30 07:06:59;;;;;;;15.23;12.45;;;38.20;40.50;;;;;;5093994;28;20039;-86
2022/08/30 07:09:28;;;;;;;18.67;12.55;;;38.40;40.30;;;;;;5093922;28;20020;-87
2022/08/30 07:11:54;;;;;;;16.33;12.65;;;;;;;;;;5095493;28;20039;-86
2022/08/30 07:14:21;;;;;;;18.38;12.40;;;;;;;;;;5075211;28;20038;-83
2022/08/30 07:16:47;;;;;;;17.52;12.82;;;;;;;;;;5092463;28;20485;-83
2022/08/30 07:19:13;;;;;;;;;;;40.00;38.40;;;;;;5085945;28;20024;-84
2022/08/30 07:21:42;;;;;;;21.13;12.90;;;37.10;40.40;;;;;;5092024;28;20384;-83
2022/08/30 07:24:12;;;;;;;17.58;12.75;;;36.00;42.40;;;;;;5075606;28;20039;-85
2022/08/30 07:26:40;;;;;;;;;;;35.20;43.40;;;;;;5073553;28;20108;-85
2022/08/30 07:29:07;;;;;;;20.25;14.20;;;34.60;43.90;;;;;;5079210;28;19904;-90
2022/08/30 07:31:34;;;;;;;24.70;16.30;;;33.60;45.90;;;;;;5090624;28;20536;-84
2022/08/30 07:34:01;;;;;;;21.60;14.70;;;32.80;47.20;;;;;;5062940;28;20457;-84
2022/08/30 07:36:28;;;;;;;16.38;13.43;;;32.80;47.70;;;;;;5094535;28;20075;-85
2022/08/30 07:38:55;;;;;;;21.10;14.00;;;33.00;47.70;;;;;;5095479;28;20026;-84
2022/08/30 07:41:30;;;;;;;20.63;13.33;;;33.60;46.90;;;;;;5076965;28;20068;-83
2022/08/30 07:43:57;;;;;;;21.93;13.57;;;34.30;46.20;;;;;;5094173;28;20020;-83
2022/08/30 07:46:24;;;;;;;22.75;14.05;;;35.20;45.40;;;;;;5095448;28;20031;-84
2022/08/30 07:48:50;;;;;;;19.27;15.38;;;35.80;44.10;;;;;;5092095;28;20020;-84
2022/08/30 07:51:18;;;;;;;;;;;35.80;43.30;;;;;;5091606;28;20507;-83
2022/08/30 07:53:44;;;;;;;19.25;13.27;;;35.80;44.30;;;;;;5074837;28;19908;-82
2022/08/30 07:56:10;;;;;;;20.23;13.17;;;36.20;42.80;;;;;;5089923;28;20430;-84
2022/08/30 07:58:36;;;;;;;21.80;13.35;;;36.30;42.60;;;;;;5091298;28;20027;-84
2022/08/30 08:01:06;;;;;;;16.70;12.15;;;35.60;42.90;;;;;;5078629;28;20111;-84
2022/08/30 08:03:32;;;;;;;19.25;13.18;;;35.40;44.30;;;;;;5093970;28;20024;-85
2022/08/30 08:06:02;;;;;;;24.17;13.82;;;35.70;43.20;;;;;;5081145;28;20032;-84
2022/08/30 08:08:29;;;;;;;16.67;12.85;;;35.70;42.70;;;;;;5101852;28;20028;-86
2022/08/30 08:10:55;;;;;;;30.15;14.38;;;35.40;42.70;;;;;;5093723;28;20036;-88
2022/08/30 08:13:22;;;;;;;22.53;12.40;;;35.20;43.70;;;;;;5095271;28;20106;-89
2022/08/30 08:15:48;;;;;;;21.50;13.88;;;36.00;42.90;;;;;;5097663;28;20300;-86
2022/08/30 08:18:16;;;;;;;17.95;12.48;;;37.00;41.60;;;;;;5091442;28;20054;-85
2022/08/30 08:20:41;;;;;;;25.13;12.85;;;38.00;40.10;;;;;;5113933;28;20013;-86
2022/08/30 08:23:07;;;;;;;17.30;13.63;;;38.40;39.40;;;;;;5093418;28;20029;-85
2022/08/30 08:25:37;;;;;;;19.77;13.02;;;38.70;38.80;;;;;;5085256;28;20469;-84
2022/08/30 08:28:03;;;;;;;20.27;12.10;;;38.70;38.90;;;;;;5098147;28;20020;-84
2022/08/30 08:30:33;;;;;;;17.42;11.70;;;38.60;38.60;;;;;;5099060;28;20027;-82
2022/08/30 08:32:59;;;;;;;18.92;12.30;;;38.80;38.60;;;;;;5083171;28;20110;-81
2022/08/30 08:35:25;;;;;;;16.95;11.63;;;39.10;38.30;;;;;;5082191;28;20499;-82
2022/08/30 08:37:51;;;;;;;18.08;13.30;;;38.70;38.40;;;;;;5077840;28;20036;-82
2022/08/30 08:40:18;;;;;;;17.00;11.38;;;38.80;38.30;;;;;;5089246;28;20062;-82
2022/08/30 08:42:50;;;;;;;19.75;12.93;;;38.80;37.90;;;;;;5090506;28;20389;-82
2022/08/30 08:45:31;;;;;;;16.58;12.05;;;39.50;38.00;;;;;;5071832;28;20069;-89
2022/08/30 08:48:06;;;;;;;19.75;13.30;;;;;;;;;;5073875;28;20093;-84
2022/08/30 08:50:32;;;;;;;17.98;11.65;;;;;;;;;;5076687;28;20470;-86
2022/08/30 08:55:49;;;;;;;20.35;11.70;;;;;;;;;;5075283;28;20044;-86
2022/08/30 08:58:41;;;;;;;17.10;10.93;;;;;;;;;;5081317;28;20486;-85
2022/08/30 09:01:08;;;;;;;15.63;9.88;;;;;;;;;;5086673;28;20444;-86
2022/08/30 09:03:35;;;;;;;15.05;11.15;;;;;;;;;;5081250;28;20025;-86
2022/08/30 09:06:03;;;;;;;15.38;10.50;;;;;;;;;;5075798;28;20028;-87
2022/08/30 09:08:31;;;;;;;12.40;9.93;;;;;;;;;;5070059;28;20030;-85
2022/08/30 09:11:09;;;;;;;17.55;10.77;;;;;;;;;;5096792;28;20024;-86
2022/08/30 09:13:36;;;;;;;18.50;10.07;;;;;;;;;;5069034;28;20024;-85
2022/08/30 09:16:04;;;;;;;12.32;11.05;;;;;;;;;;5060104;28;20051;-88
2022/08/30 09:18:44;;;;;;;12.77;11.00;;;;;;;;;;5090875;28;20384;-86
2022/08/30 09:21:11;;;;;;;19.25;12.05;;;;;;;;;;5075282;28;20517;-86
2022/08/30 09:23:47;;;;;;;18.42;11.25;;;;;;;;;;5095525;28;20481;-88
2022/08/30 09:26:13;;;;;;;15.20;11.10;;;;;;;;;;5094645;28;20035;-85
2022/08/30 09:28:48;;;;;;;16.08;12.75;;;;;;;;;;5100975;28;20500;-86
2022/08/30 09:31:26;;;;;;;15.93;11.33;;;;;;;;;;5099380;28;20097;-88
2022/08/30 09:34:00;;;;;;;20.17;11.90;;;;;;;;;;5102451;28;20026;-90
2022/08/30 09:36:28;;;;;;;18.90;12.15;;;;;;;;;;5099823;28;20031;-92
2022/08/30 09:39:03;;;;;;;12.82;11.50;;;;;;;;;;5089311;28;20442;-87
2022/08/30 09:41:41;;;;;;;20.08;12.90;;;;;;;;;;5085136;28;20047;-88
2022/08/30 09:44:16;;;;;;;18.55;13.13;;;;;;;;;;5092147;28;20021;-88
2022/08/30 09:46:53;;;;;;;17.38;12.38;;;;;;;;;;5096570;28;20038;-91
2022/08/30 09:49:40;;;;;;;15.45;13.05;;;;;;;;;;5101537;28;20080;-90
2022/08/30 09:52:09;;;;;;;18.98;13.75;;;;;;;;;;5110855;28;20028;-92
2022/08/30 09:54:42;;;;;;;19.83;14.50;;;;;;;;;;5104383;28;20420;-87
2022/08/30 09:57:17;;;;;;;19.83;15.88;;;;;;;;;;5104776;28;20043;-91
2022/08/30 10:00:10;;;;;;;18.23;15.45;;;;;;;;;;5087678;28;20043;-85
2022/08/30 10:02:36;;;;;;;19.05;15.90;;;;;;;;;;5011662;28;20496;-84
2022/08/30 10:05:22;;;;;;;21.92;15.65;;;40.10;37.70;;;;;;5017436;28;20045;-84
2022/08/30 10:08:07;;;;;;;18.13;14.27;;;;;;;;;;5004647;28;20030;-88
2022/08/30 10:16:45;;;;;;;16.90;15.07;;;35.20;41.00;;;;;;5141363;27;20440;-90
2022/08/30 10:19:33;;;;;;;23.77;15.88;;;35.80;40.40;;;;;;5110378;28;20062;-86
2022/08/30 10:22:18;;;;;;;18.83;16.83;;;36.30;39.70;;;;;;5139341;28;20043;-88
2022/08/30 10:24:50;;;;;;;20.48;16.20;;;37.00;39.00;;;;;;5134788;28;20020;-88
2022/08/30 10:27:25;;;;;;;18.42;16.52;;;37.00;38.40;;;;;;5133068;28;20027;-85
2022/08/30 10:30:12;;;;;;;20.50;16.27;;;36.60;38.70;;;;;;5133128;27;20027;-87
2022/08/30 10:32:45;;;;;;;20.52;15.73;;;35.80;39.60;;;;;;5112752;28;20028;-85
2022/08/30 10:35:19;;;;;;;24.77;19.00;;;35.20;40.50;;;;;;5108843;28;20130;-84
2022/08/30 10:37:52;;;;;;;24.77;18.30;;;34.70;41.40;;;;;;5132759;27;20035;-84
2022/08/30 10:43:30;;;;;;;23.25;18.95;;;34.00;42.90;;;;;;5132158;28;20035;-85
2022/08/30 10:46:01;;;;;;;27.42;19.70;;;33.60;43.80;;;;;;5126270;28;20055;-86
2022/08/30 10:48:51;;;;;;;24.85;17.20;;;33.00;44.40;;;;;;5114169;28;20024;-86
2022/08/30 10:51:43;;;;;;;24.98;18.55;;;32.60;43.90;;;;;;5117032;28;20046;-82
2022/08/30 10:54:17;;;;;;;25.25;19.23;;;32.40;44.50;;;;;;5110690;28;20101;-83
2022/08/30 10:56:46;;;;;;;22.30;18.70;;;31.90;45.60;;;;;;5119423;28;20024;-90
2022/08/30 10:59:18;;;;;;;24.70;20.05;;;31.70;46.50;;;;;;5121800;28;20396;-88
2022/08/30 11:02:23;;;;;;;22.65;19.52;;;31.60;46.50;;;;;;5120762;28;20016;-89
2022/08/30 11:05:13;;;;;;;26.17;18.40;;;31.80;45.80;;;;;;5105040;28;20019;-90
2022/08/30 11:08:08;;;;;;;21.13;16.83;;;32.10;45.10;;;;;;5114038;28;20023;-90
2022/08/30 11:11:11;;;;;;;21.38;16.27;;;32.30;44.30;;;;;;5118770;28;20020;-95
2022/08/30 11:13:39;;;;;;;23.50;18.48;;;32.20;44.30;;;;;;5117546;28;20107;-95
2022/08/30 11:16:14;;;;;;;22.45;18.27;;;31.80;45.00;;;;;;5107366;28;20036;-88
2022/08/30 11:18:48;;;;;;;21.02;18.52;;;31.30;46.20;;;;;;5116705;28;20024;-88
2022/08/30 11:21:45;;;;;;;27.17;19.45;;;31.00;47.70;;;;;;5123397;28;20027;-90
2022/08/30 11:24:18;;;;;;;26.20;20.17;;;30.70;47.30;;;;;;5130810;28;20038;-90
2022/08/30 11:26:44;;;;;;;29.38;18.90;;;30.60;47.90;;;;;;5117891;28;20020;-92
2022/08/30 11:29:43;;;;;;;28.02;18.83;;;30.60;47.90;;;;;;5120555;28;20041;-88
2022/08/30 11:32:12;;;;;;;24.55;18.13;;;30.50;47.60;;;;;;5094151;28;20020;-87
2022/08/30 11:34:47;;;;;;;23.33;17.63;;;30.40;47.90;;;;;;5093285;28;20021;-88
2022/08/30 11:37:35;;;;;;;24.35;17.70;;;30.20;47.90;;;;;;5096222;28;20059;-89
2022/08/30 11:40:08;;;;;;;24.25;16.30;;;30.30;47.40;;;;;;5083473;28;20465;-87
2022/08/30 11:42:36;;;;;;;22.30;16.67;;;30.30;47.20;;;;;;5093601;28;20020;-84
2022/08/30 11:45:23;;;;;;;23.35;16.38;;;30.10;46.10;;;;;;5095959;28;20028;-87
2022/08/30 11:48:27;;;;;;;23.80;16.15;;;29.80;46.40;;;;;;5099678;28;20023;-89
2022/08/30 11:51:03;;;;;;;17.15;15.05;;;29.80;46.60;;;;;;5125997;28;20027;-88
2022/08/30 11:53:37;;;;;;;17.30;14.60;;;29.80;45.30;;;;;;5105598;28;20024;-86
2022/08/30 11:56:12;;;;;;;19.42;14.77;;;29.90;45.40;;;;;;5097193;28;20042;-86
2022/08/30 11:59:00;;;;;;;22.55;15.70;;;30.00;45.20;;;;;;5103010;28;20028;-92
2022/08/30 12:01:26;;;;;;;19.20;14.18;;;30.00;45.00;;;;;;5097717;28;20035;-86
2022/08/30 12:03:57;;;;;;;25.10;15.63;;;30.00;44.70;;;;;;5101533;28;20028;-92
2022/08/30 12:06:43;;;;;;;24.33;15.27;;;30.00;44.70;;;;;;5102207;28;20031;-90
2022/08/30 12:09:32;;;;;;;23.15;14.80;;;30.10;45.10;;;;;;5088784;28;20048;-89
2022/08/30 12:12:08;;;;;;;25.02;16.98;;;30.10;45.30;;;;;;5101069;28;20107;-89
2022/08/30 12:14:54;;;;;;;21.90;16.27;;;30.00;45.60;;;;;;5103736;28;20044;-85
2022/08/30 12:20:17;;;;;;;22.20;16.38;;;29.90;45.90;;;;;;5108527;28;19910;-87
2022/08/30 12:22:44;;;;;;;24.63;17.30;;;29.90;46.80;;;;;;5114763;28;20370;-86
2022/08/30 12:25:31;;;;;;;25.75;17.08;;;29.80;46.90;;;;;;5124945;28;20016;-86
2022/08/30 12:28:25;;;;;;;25.10;16.92;;;29.90;46.90;;;;;;5109685;28;20028;-86
2022/08/30 12:30:52;;;;;;;19.85;14.85;;;30.00;46.90;;;;;;5111944;28;20054;-87
2022/08/30 12:33:33;;;;;;;22.38;16.20;;;30.10;47.00;;;;;;5096797;28;20024;-85
2022/08/30 12:36:00;;;;;;;25.42;17.13;;;30.20;46.50;;;;;;5100855;28;20115;-86
2022/08/30 12:38:28;;;;;;;22.92;15.07;;;30.30;46.00;;;;;;5101242;28;20031;-88
2022/08/30 12:41:00;;;;;;;26.10;14.32;;;30.20;46.00;;;;;;5096279;28;20028;-83
2022/08/30 12:43:34;;;;;;;19.42;13.77;;;30.10;44.90;;;;;;5088778;28;20017;-84
2022/08/30 12:46:03;;;;;;;22.23;12.70;;;30.00;44.90;;;;;;5083234;28;20020;-86
2022/08/30 12:48:34;;;;;;;22.67;12.20;;;30.30;43.70;;;;;;5099003;28;20020;-85
2022/08/30 12:51:00;;;;;;;16.08;12.45;;;30.40;43.00;;;;;;5102736;28;20051;-85
2022/08/30 12:53:33;;;;;;;17.43;12.60;;;30.50;43.20;;;;;;5092889;28;20093;-81
2022/08/30 12:56:16;;;;;;;19.45;12.93;;;30.40;42.60;;;;;;5083068;28;20066;-85
2022/08/30 12:58:49;;;;;;;18.20;12.60;;;30.10;43.20;;;;;;5099376;28;20042;-85
2022/08/30 13:01:32;;;;;;;18.65;12.45;;;30.00;43.50;;;;;;5095765;28;20584;-84
2022/08/30 13:04:26;;;;;;;22.35;16.38;;;29.90;44.60;;;;;;5098227;28;20054;-82
2022/08/30 13:06:56;;;;;;;22.60;17.33;;;29.90;46.40;;;;;;5104424;28;20025;-82
2022/08/30 13:09:22;;;;;;;27.70;18.60;;;29.70;47.00;;;;;;5097312;28;20024;-84
2022/08/30 13:11:52;;;;;;;25.93;18.80;;;29.60;47.90;;;;;;5100359;28;20020;-84
2022/08/30 13:14:41;;;;;;;18.58;10.90;;;29.50;48.00;;;;;;5095113;28;20293;-84